Tour Pomerol — 9HA2543 — position and weather

sailwx.info

Track history (hours):
 
Tides and Currents Weather Stations Pressure Air Temp Water Temp Dewpoint Dewpoint Depression Visibility Wind Speed Wind Dir Waves Ship Positions

Tour Pomerol

Last reported at 2017-Dec-11 13:01 UTC. Time now 2017-Dec-12 23:54 UTC.
Position N 38°30' W 008°50'.

Length 120 m; draft 4.8 m.

Type: Ship. MMSI: 248842000.

Date/timePositionNaut miles runAvg speedWind from/ knotsBaromVisibWave heightAir tempDewpointWater temp
2017-Dec-11 13:01N 38°30' W 008°50'0 0.0
2017-Dec-11 13:00N 38°30' W 008°50'0 0.0
2017-Dec-11 12:30N 38°30' W 008°50'3 5.1
2017-Dec-11 12:00N 38°31' W 008°53'4 9.0
2017-Dec-11 11:31N 38°28' W 008°57'511.0
2017-Dec-11 11:01N 38°23' W 009°00'611.8
2017-Dec-11 10:30N 38°17' W 009°02'611.2
2017-Dec-11 10:01N 38°12' W 009°05'510.8
2017-Dec-11 09:31N 38°07' W 009°08'510.3
2017-Dec-11 09:01N 38°02' W 009°10'5 9.3
2017-Dec-11 08:31N 37°58' W 009°12'5 9.2
2017-Dec-11 08:01N 37°53' W 009°12'4 9.0
2017-Dec-11 07:31N 37°49' W 009°13'5 9.0
2017-Dec-11 07:00N 37°44' W 009°14'5 9.5
2017-Dec-11 06:31N 37°40' W 009°15'5 9.3
2017-Dec-11 06:01N 37°35' W 009°17'65 6.9
2017-Dec-10 20:44N 36°41' W 008°33'911.7
2017-Dec-10 19:57N 36°42' W 008°22'612.1
2017-Dec-10 19:26N 36°43' W 008°14'612.8
2017-Dec-10 19:01N 36°44' W 008°07'612.9
2017-Dec-10 18:30N 36°45' W 007°60'  
2017-Dec-03 20:04N 47°19' W 007°05'112.8
2017-Dec-03 19:59N 47°20' W 007°04'813.5
2017-Dec-03 19:25N 47°26' W 006°59'714.0
2017-Dec-03 18:57N 47°32' W 006°54'814.4
2017-Dec-03 18:23N 47°39' W 006°48'614.4
2017-Dec-03 17:59N 47°44' W 006°43'1813.8
2017-Dec-03 16:39N 48°00' W 006°31'1112.9
2017-Dec-03 15:50N 48°09' W 006°23'412.4
2017-Dec-03 15:30N 48°13' W 006°20'712.0
2017-Dec-03 14:54N 48°19' W 006°15'511.7
2017-Dec-03 14:30N 48°23' W 006°11'611.6
2017-Dec-03 13:58N 48°29' W 006°07'10713.1
2017-Dec-03 05:47N 49°36' W 004°00'611.8
2017-Dec-03 05:16N 49°40' W 003°52'311.5
2017-Dec-03 04:59N 49°41' W 003°48'1011.5
2017-Dec-03 04:08N 49°46' W 003°35'311.8
2017-Dec-03 03:53N 49°48' W 003°31'512.1
2017-Dec-03 03:30N 49°50' W 003°25'612.5
2017-Dec-03 03:01N 49°53' W 003°17'713.3
2017-Dec-03 02:30N 49°57' W 003°08'714.0
2017-Dec-03 02:00N 50°00' W 002°58'714.8
2017-Dec-03 01:30N 50°02' W 002°47'815.9
2017-Dec-03 01:00N 50°04' W 002°35'3116.5
2017-Dec-02 23:09N 50°13' W 001°49'4912.3
2017-Dec-02 19:11N 50°26' W 000°36'410.4
2017-Dec-02 18:46N 50°27' W 000°29'310.8
2017-Dec-02 18:30N 50°28' W 000°25'611.4
2017-Dec-02 18:00N 50°29' W 000°16'612.1
2017-Dec-02 17:30N 50°30' W 000°07'612.8
2017-Dec-02 17:00N 50°31' E 000°03'713.7
2017-Dec-02 16:30N 50°33' E 000°13'714.3
2017-Dec-02 16:00N 50°36' E 000°24'714.6
2017-Dec-02 15:30N 50°38' E 000°35'714.7
2017-Dec-02 15:00N 50°42' E 000°44'714.5
2017-Dec-02 14:30N 50°47' E 000°53'714.0
2017-Dec-02 14:00N 50°51' E 001°02'713.4
2017-Dec-02 13:30N 50°55' E 001°10'612.4
2017-Dec-02 13:00N 50°59' E 001°18'611.6
2017-Dec-02 12:31N 51°03' E 001°24'510.2
2017-Dec-02 12:00N 51°06' E 001°31'5 9.6
2017-Dec-02 11:30N 51°10' E 001°37'510.0
2017-Dec-02 11:00N 51°12' E 001°43'510.6
2017-Dec-02 10:31N 51°17' E 001°48'611.5
2017-Dec-02 10:00N 51°21' E 001°54'612.2
2017-Dec-02 09:30N 51°25' E 002°01'612.2
2017-Dec-02 09:01N 51°23' E 002°09'612.3
2017-Dec-02 08:31N 51°21' E 002°19'813.8
2017-Dec-02 07:58N 51°23' E 002°30'613.9
2017-Dec-02 07:30N 51°23' E 002°40'5 9.0
2017-Dec-02 06:59N 51°22' E 002°48'714.2
2017-Dec-02 06:31N 51°23' E 002°58'713.4
2017-Dec-02 06:00N 51°24' E 003°09'714.5
2017-Dec-02 05:30N 51°24' E 003°21'714.6
2017-Dec-02 05:00N 51°26' E 003°32'510.5
2017-Dec-02 04:30N 51°26' E 003°40'713.4
2017-Dec-02 04:00N 51°21' E 003°47'713.1
2017-Dec-02 03:30N 51°24' E 003°57'3 6.4
2017-Dec-02 03:01N 51°23' E 004°02'611.1
2017-Dec-02 02:30N 51°24' E 004°11'5 9.1
2017-Dec-02 02:00N 51°21' E 004°16'0 0.8
2017-Dec-02 01:30N 51°21' E 004°17'0 0.0
2017-Dec-02 01:00N 51°21' E 004°17'0 0.0
2017-Dec-02 00:31N 51°21' E 004°17'1 2.0
2017-Dec-02 00:00N 51°20' E 004°18'4 7.9
2017-Dec-01 23:31N 51°17' E 004°21'1 1.7
2017-Dec-01 22:58N 51°16' E 004°22'0 0.0
2017-Dec-01 22:29N 51°16' E 004°22'0 0.0
2017-Dec-01 21:58N 51°16' E 004°22'0 0.0
2017-Dec-01 21:26N 51°16' E 004°22'0 0.0
2017-Dec-01 20:56N 51°16' E 004°22'0 0.0
2017-Dec-01 20:28N 51°16' E 004°22'0 0.0
2017-Dec-01 19:55N 51°16' E 004°22'0 0.0
2017-Dec-01 19:25N 51°16' E 004°22'0 0.0
2017-Dec-01 18:49N 51°16' E 004°22'0 0.0
2017-Dec-01 18:22N 51°16' E 004°22'0 0.0
2017-Dec-01 17:49N 51°16' E 004°22'0 0.0
2017-Dec-01 17:19N 51°16' E 004°22'0 0.0
2017-Dec-01 16:22N 51°16' E 004°22'0 0.0
2017-Dec-01 15:58N 51°16' E 004°22'0 0.0
2017-Dec-01 15:22N 51°16' E 004°22'0 0.0
2017-Dec-01 14:55N 51°16' E 004°22'0 0.0
2017-Dec-01 14:28N 51°16' E 004°22'0 0.0
2017-Dec-01 13:52N 51°16' E 004°22'0 0.0
2017-Dec-01 13:22N 51°16' E 004°22'  
Track history (hours):
 
Tides and Currents Weather Stations Pressure Air Temp Water Temp Dewpoint Dewpoint Depression Visibility Wind Speed Wind Dir Waves Ship Positions

Tour Pomerol

Last reported at 2017-Dec-11 13:01 UTC. Time now 2017-Dec-12 23:54 UTC.
Position N 38°30' W 008°50'.

Length 120 m; draft 4.8 m.

Type: Ship. MMSI: 248842000.

Date/timePositionNaut miles runAvg speedWind from/ knotsBaromVisibWave heightAir tempDewpointWater temp
2017-Dec-11 13:01N 38°30' W 008°50'0 0.0
2017-Dec-11 13:00N 38°30' W 008°50'0 0.0
2017-Dec-11 12:30N 38°30' W 008°50'3 5.1
2017-Dec-11 12:00N 38°31' W 008°53'4 9.0
2017-Dec-11 11:31N 38°28' W 008°57'511.0
2017-Dec-11 11:01N 38°23' W 009°00'611.8
2017-Dec-11 10:30N 38°17' W 009°02'611.2
2017-Dec-11 10:01N 38°12' W 009°05'510.8
2017-Dec-11 09:31N 38°07' W 009°08'510.3
2017-Dec-11 09:01N 38°02' W 009°10'5 9.3
2017-Dec-11 08:31N 37°58' W 009°12'5 9.2
2017-Dec-11 08:01N 37°53' W 009°12'4 9.0
2017-Dec-11 07:31N 37°49' W 009°13'5 9.0
2017-Dec-11 07:00N 37°44' W 009°14'5 9.5
2017-Dec-11 06:31N 37°40' W 009°15'5 9.3
2017-Dec-11 06:01N 37°35' W 009°17'65 6.9
2017-Dec-10 20:44N 36°41' W 008°33'911.7
2017-Dec-10 19:57N 36°42' W 008°22'612.1
2017-Dec-10 19:26N 36°43' W 008°14'612.8
2017-Dec-10 19:01N 36°44' W 008°07'612.9
2017-Dec-10 18:30N 36°45' W 007°60'  
2017-Dec-03 20:04N 47°19' W 007°05'112.8
2017-Dec-03 19:59N 47°20' W 007°04'813.5
2017-Dec-03 19:25N 47°26' W 006°59'714.0
2017-Dec-03 18:57N 47°32' W 006°54'814.4
2017-Dec-03 18:23N 47°39' W 006°48'614.4
2017-Dec-03 17:59N 47°44' W 006°43'1813.8
2017-Dec-03 16:39N 48°00' W 006°31'1112.9
2017-Dec-03 15:50N 48°09' W 006°23'412.4
2017-Dec-03 15:30N 48°13' W 006°20'712.0
2017-Dec-03 14:54N 48°19' W 006°15'511.7
2017-Dec-03 14:30N 48°23' W 006°11'611.6
2017-Dec-03 13:58N 48°29' W 006°07'10713.1
2017-Dec-03 05:47N 49°36' W 004°00'611.8
2017-Dec-03 05:16N 49°40' W 003°52'311.5
2017-Dec-03 04:59N 49°41' W 003°48'1011.5
2017-Dec-03 04:08N 49°46' W 003°35'311.8
2017-Dec-03 03:53N 49°48' W 003°31'512.1
2017-Dec-03 03:30N 49°50' W 003°25'612.5
2017-Dec-03 03:01N 49°53' W 003°17'713.3
2017-Dec-03 02:30N 49°57' W 003°08'714.0
2017-Dec-03 02:00N 50°00' W 002°58'714.8
2017-Dec-03 01:30N 50°02' W 002°47'815.9
2017-Dec-03 01:00N 50°04' W 002°35'3116.5
2017-Dec-02 23:09N 50°13' W 001°49'4912.3
2017-Dec-02 19:11N 50°26' W 000°36'410.4
2017-Dec-02 18:46N 50°27' W 000°29'310.8
2017-Dec-02 18:30N 50°28' W 000°25'611.4
2017-Dec-02 18:00N 50°29' W 000°16'612.1
2017-Dec-02 17:30N 50°30' W 000°07'612.8
2017-Dec-02 17:00N 50°31' E 000°03'713.7
2017-Dec-02 16:30N 50°33' E 000°13'714.3
2017-Dec-02 16:00N 50°36' E 000°24'714.6
2017-Dec-02 15:30N 50°38' E 000°35'714.7
2017-Dec-02 15:00N 50°42' E 000°44'714.5
2017-Dec-02 14:30N 50°47' E 000°53'714.0
2017-Dec-02 14:00N 50°51' E 001°02'713.4
2017-Dec-02 13:30N 50°55' E 001°10'612.4
2017-Dec-02 13:00N 50°59' E 001°18'611.6
2017-Dec-02 12:31N 51°03' E 001°24'510.2
2017-Dec-02 12:00N 51°06' E 001°31'5 9.6
2017-Dec-02 11:30N 51°10' E 001°37'510.0
2017-Dec-02 11:00N 51°12' E 001°43'510.6
2017-Dec-02 10:31N 51°17' E 001°48'611.5
2017-Dec-02 10:00N 51°21' E 001°54'612.2
2017-Dec-02 09:30N 51°25' E 002°01'612.2
2017-Dec-02 09:01N 51°23' E 002°09'612.3
2017-Dec-02 08:31N 51°21' E 002°19'813.8
2017-Dec-02 07:58N 51°23' E 002°30'613.9
2017-Dec-02 07:30N 51°23' E 002°40'5 9.0
2017-Dec-02 06:59N 51°22' E 002°48'714.2
2017-Dec-02 06:31N 51°23' E 002°58'713.4
2017-Dec-02 06:00N 51°24' E 003°09'714.5
2017-Dec-02 05:30N 51°24' E 003°21'714.6
2017-Dec-02 05:00N 51°26' E 003°32'510.5
2017-Dec-02 04:30N 51°26' E 003°40'713.4
2017-Dec-02 04:00N 51°21' E 003°47'713.1
2017-Dec-02 03:30N 51°24' E 003°57'3 6.4
2017-Dec-02 03:01N 51°23' E 004°02'611.1
2017-Dec-02 02:30N 51°24' E 004°11'5 9.1
2017-Dec-02 02:00N 51°21' E 004°16'0 0.8
2017-Dec-02 01:30N 51°21' E 004°17'0 0.0
2017-Dec-02 01:00N 51°21' E 004°17'0 0.0
2017-Dec-02 00:31N 51°21' E 004°17'1 2.0
2017-Dec-02 00:00N 51°20' E 004°18'4 7.9
2017-Dec-01 23:31N 51°17' E 004°21'1 1.7
2017-Dec-01 22:58N 51°16' E 004°22'0 0.0
2017-Dec-01 22:29N 51°16' E 004°22'0 0.0
2017-Dec-01 21:58N 51°16' E 004°22'0 0.0
2017-Dec-01 21:26N 51°16' E 004°22'0 0.0
2017-Dec-01 20:56N 51°16' E 004°22'0 0.0
2017-Dec-01 20:28N 51°16' E 004°22'0 0.0
2017-Dec-01 19:55N 51°16' E 004°22'0 0.0
2017-Dec-01 19:25N 51°16' E 004°22'0 0.0
2017-Dec-01 18:49N 51°16' E 004°22'0 0.0
2017-Dec-01 18:22N 51°16' E 004°22'0 0.0
2017-Dec-01 17:49N 51°16' E 004°22'0 0.0
2017-Dec-01 17:19N 51°16' E 004°22'0 0.0
2017-Dec-01 16:22N 51°16' E 004°22'0 0.0
2017-Dec-01 15:58N 51°16' E 004°22'0 0.0
2017-Dec-01 15:22N 51°16' E 004°22'0 0.0
2017-Dec-01 14:55N 51°16' E 004°22'0 0.0
2017-Dec-01 14:28N 51°16' E 004°22'0 0.0
2017-Dec-01 13:52N 51°16' E 004°22'0 0.0
2017-Dec-01 13:22N 51°16' E 004°22'  

Dump ship's entire track history